createdAt,value
2023-07-12T00:01:41.159Z,2.95
2023-07-12T00:04:11.107Z,3.60
2023-07-12T00:06:41.471Z,3.42
2023-07-12T00:09:15.910Z,4.13
2023-07-12T00:11:44.598Z,3.30
2023-07-12T00:14:13.216Z,3.45
2023-07-12T00:16:43.356Z,3.50
2023-07-12T00:19:15.808Z,4.28
2023-07-12T00:21:44.826Z,4.28
2023-07-12T00:24:13.409Z,4.13
2023-07-12T00:26:41.911Z,4.60
2023-07-12T00:29:11.078Z,4.32
2023-07-12T00:31:40.793Z,4.53
2023-07-12T00:34:09.721Z,4.28
2023-07-12T00:36:39.725Z,4.30
2023-07-12T00:39:08.542Z,4.53
2023-07-12T00:41:52.846Z,4.20
2023-07-12T00:44:25.359Z,4.90
2023-07-12T00:46:57.616Z,4.18
2023-07-12T00:49:26.622Z,4.20
2023-07-12T00:52:02.156Z,3.88
2023-07-12T00:54:50.576Z,4.00
2023-07-12T00:57:19.727Z,3.78
2023-07-12T00:59:48.206Z,4.28
2023-07-12T01:02:17.290Z,3.70
2023-07-12T01:04:50.550Z,4.10
2023-07-12T01:07:21.956Z,4.47
2023-07-12T01:09:50.795Z,4.05
2023-07-12T01:12:19.533Z,3.40
2023-07-12T01:14:49.526Z,2.80
2023-07-12T01:17:18.637Z,2.30
2023-07-12T01:19:47.229Z,1.80
2023-07-12T01:22:17.039Z,1.30
2023-07-12T01:24:45.619Z,1.58
2023-07-12T01:27:17.058Z,1.67
2023-07-12T01:29:46.851Z,1.98
2023-07-12T01:32:15.590Z,1.83
2023-07-12T01:34:44.050Z,2.00
2023-07-12T01:37:14.097Z,1.70
2023-07-12T01:39:43.981Z,1.98
2023-07-12T01:42:12.681Z,1.75
2023-07-12T01:44:41.244Z,1.98
2023-07-12T01:47:09.729Z,2.20
2023-07-12T01:49:38.252Z,2.00
2023-07-12T01:52:07.595Z,2.00
2023-07-12T01:54:36.171Z,2.45
2023-07-12T01:57:07.217Z,2.10
2023-07-12T01:59:36.814Z,1.80
2023-07-12T02:02:05.661Z,1.33
2023-07-12T02:04:34.412Z,1.33
2023-07-12T02:07:04.515Z,1.15
2023-07-12T02:09:36.798Z,1.63
2023-07-12T02:12:08.067Z,1.75
2023-07-12T02:14:36.760Z,1.55
2023-07-12T02:17:05.657Z,1.75
2023-07-12T02:19:34.587Z,1.60
2023-07-12T02:22:03.789Z,1.70
2023-07-12T02:24:32.370Z,1.60
2023-07-12T02:27:01.029Z,1.40
2023-07-12T02:29:30.928Z,1.42
2023-07-12T02:31:59.422Z,1.40
2023-07-12T02:34:28.048Z,1.92
2023-07-12T02:36:56.500Z,1.40
2023-07-12T02:39:25.187Z,1.50
2023-07-12T02:41:53.639Z,1.95
2023-07-12T02:44:22.481Z,1.77
2023-07-12T02:46:52.272Z,1.25
2023-07-12T02:49:20.771Z,1.65
2023-07-12T02:51:49.391Z,1.42
2023-07-12T02:54:17.854Z,1.58
2023-07-12T02:56:46.545Z,2.95
2023-07-12T02:59:15.100Z,2.22
2023-07-12T03:01:43.623Z,2.20
2023-07-12T03:04:13.636Z,2.95
2023-07-12T03:06:42.048Z,2.80
2023-07-12T03:09:10.891Z,2.90
2023-07-12T03:11:39.830Z,2.88
2023-07-12T03:14:08.458Z,3.15
2023-07-12T03:16:37.259Z,4.68
2023-07-12T03:19:27.227Z,3.17
2023-07-12T03:21:55.865Z,3.45
2023-07-12T03:24:24.255Z,3.60
2023-07-12T03:26:52.843Z,3.78
2023-07-12T03:29:21.335Z,3.45
2023-07-12T03:31:50.476Z,3.13
2023-07-12T03:34:19.148Z,3.60
2023-07-12T03:36:49.123Z,3.25
2023-07-12T03:39:17.580Z,3.17
2023-07-12T03:41:45.935Z,4.03
2023-07-12T03:44:14.358Z,4.70
2023-07-12T03:46:43.103Z,3.45
2023-07-12T03:49:11.734Z,4.85
2023-07-12T03:52:01.569Z,4.93
2023-07-12T03:54:30.743Z,3.53
2023-07-12T03:56:59.081Z,3.38
2023-07-12T03:59:27.465Z,3.60
2023-07-12T04:01:55.933Z,3.38
2023-07-12T04:04:24.434Z,3.13
2023-07-12T04:06:53.099Z,3.35
2023-07-12T04:09:22.877Z,3.40
2023-07-12T04:11:51.320Z,3.70
2023-07-12T04:14:19.911Z,3.17
2023-07-12T04:16:48.702Z,3.72
2023-07-12T04:19:17.476Z,2.75
2023-07-12T04:21:45.951Z,4.35
2023-07-12T04:24:14.483Z,3.63
2023-07-12T04:26:44.414Z,3.90
2023-07-12T04:29:13.056Z,3.88
2023-07-12T04:31:42.295Z,4.00
2023-07-12T04:34:10.986Z,4.97
2023-07-12T04:36:40.161Z,4.90
2023-07-12T04:39:09.273Z,4.55
2023-07-12T04:41:38.389Z,5.22
2023-07-12T04:44:40.072Z,5.22
2023-07-12T04:47:09.143Z,5.25
2023-07-12T04:49:38.157Z,5.10
2023-07-12T04:52:07.391Z,4.80
2023-07-12T04:54:36.435Z,4.15
2023-07-12T04:57:19.129Z,4.90
2023-07-12T04:59:49.042Z,4.30
2023-07-12T05:02:17.661Z,4.72
2023-07-12T05:04:46.132Z,3.95
2023-07-12T05:07:14.778Z,3.65
2023-07-12T05:09:43.233Z,4.03
2023-07-12T05:12:12.993Z,4.38
2023-07-12T05:14:41.819Z,4.78
2023-07-12T05:17:11.613Z,4.22
2023-07-12T05:19:39.991Z,4.32
2023-07-12T05:22:08.598Z,4.30
2023-07-12T05:24:37.283Z,2.88
2023-07-12T05:27:06.634Z,3.58
2023-07-12T05:29:35.177Z,2.80
2023-07-12T05:32:03.717Z,2.55
2023-07-12T05:34:33.960Z,3.10
2023-07-12T05:37:02.498Z,2.45
2023-07-12T05:39:30.926Z,2.50
2023-07-12T05:41:59.654Z,2.95
2023-07-12T05:44:28.102Z,2.58
2023-07-12T05:46:56.564Z,2.42
2023-07-12T05:49:25.927Z,2.67
2023-07-12T05:51:55.744Z,2.28
2023-07-12T05:54:24.199Z,2.70
2023-07-12T05:56:52.604Z,2.85
2023-07-12T05:59:23.487Z,3.08
2023-07-12T06:01:52.131Z,2.90
2023-07-12T06:04:21.993Z,3.63
2023-07-12T06:06:51.543Z,2.97
2023-07-12T06:09:21.366Z,3.75
2023-07-12T06:11:49.921Z,2.88
2023-07-12T06:14:18.508Z,3.47
2023-07-12T06:16:46.933Z,2.97
2023-07-12T06:19:15.609Z,3.10
2023-07-12T06:21:44.168Z,3.58
2023-07-12T06:24:12.685Z,3.58
2023-07-12T06:26:42.503Z,3.90
2023-07-12T06:29:10.948Z,3.83
2023-07-12T06:31:39.453Z,3.55
2023-07-12T06:34:08.059Z,4.22
2023-07-12T06:36:36.646Z,4.22
2023-07-12T06:39:05.435Z,5.57
2023-07-12T06:41:33.845Z,5.28
2023-07-12T06:44:03.684Z,4.32
2023-07-12T06:46:32.631Z,4.18
2023-07-12T06:49:01.248Z,4.55
2023-07-12T06:51:29.722Z,3.60
2023-07-12T06:53:58.182Z,3.10
2023-07-12T06:56:26.671Z,2.65
2023-07-12T06:58:55.286Z,4.00
2023-07-12T07:01:25.253Z,3.40
2023-07-12T07:03:53.713Z,3.80
2023-07-12T07:06:22.923Z,4.38
2023-07-12T07:08:51.445Z,4.65
2023-07-12T07:11:20.041Z,4.03
2023-07-12T07:13:48.882Z,4.57
2023-07-12T07:16:17.389Z,4.25
2023-07-12T07:18:50.444Z,4.38
2023-07-12T07:21:19.338Z,3.50
2023-07-12T07:23:47.772Z,3.50
2023-07-12T07:26:16.763Z,3.35
2023-07-12T07:28:45.525Z,3.13
2023-07-12T07:31:13.938Z,3.40
2023-07-12T07:33:42.763Z,2.83
2023-07-12T07:36:14.951Z,3.53
2023-07-12T07:38:43.615Z,2.55
2023-07-12T07:41:15.977Z,2.35
2023-07-12T07:43:45.765Z,2.60
2023-07-12T07:46:15.171Z,2.33
2023-07-12T07:48:43.847Z,2.78
2023-07-12T07:51:15.718Z,3.25
2023-07-12T07:53:44.635Z,2.47
2023-07-12T07:56:13.300Z,2.78
2023-07-12T07:58:41.798Z,2.83
2023-07-12T08:01:10.466Z,2.80
2023-07-12T08:03:39.365Z,2.42
2023-07-12T08:06:08.606Z,2.92
2023-07-12T08:08:38.632Z,2.88
2023-07-12T08:11:07.917Z,2.08
2023-07-12T08:13:37.363Z,2.63
2023-07-12T08:16:06.749Z,2.10
2023-07-12T08:18:35.963Z,2.08
2023-07-12T08:21:04.729Z,1.50
2023-07-12T08:23:33.242Z,1.60
2023-07-12T08:26:03.054Z,1.80
2023-07-12T08:28:31.497Z,2.25
2023-07-12T08:31:00.202Z,1.75
2023-07-12T08:33:28.741Z,2.33
2023-07-12T08:35:57.440Z,1.58
2023-07-12T08:38:26.352Z,1.95
2023-07-12T08:40:55.303Z,2.53
2023-07-12T08:43:31.410Z,2.38
2023-07-12T08:46:08.368Z,2.10
2023-07-12T08:48:38.849Z,2.30
2023-07-12T08:51:17.903Z,1.58
2023-07-12T08:53:47.446Z,2.03
2023-07-12T08:56:19.966Z,2.05
2023-07-12T08:58:51.664Z,2.08
2023-07-12T09:01:44.045Z,2.30
2023-07-12T09:04:26.476Z,1.50
2023-07-12T09:06:57.339Z,2.08
2023-07-12T09:09:27.801Z,1.83
2023-07-12T09:11:56.900Z,1.92
2023-07-12T09:14:26.790Z,2.25
2023-07-12T09:16:59.714Z,2.10
2023-07-12T09:19:32.952Z,1.83
2023-07-12T09:22:07.990Z,1.90
2023-07-12T09:24:44.224Z,1.80
2023-07-12T09:27:16.936Z,1.92
2023-07-12T09:29:47.127Z,2.63
2023-07-12T09:32:19.930Z,1.88
2023-07-12T09:34:49.016Z,1.80
2023-07-12T09:37:22.118Z,2.42
2023-07-12T09:39:56.560Z,2.20
2023-07-12T09:42:59.910Z,1.88
2023-07-12T09:45:36.789Z,2.00
2023-07-12T09:48:11.271Z,2.10
2023-07-12T09:50:46.554Z,2.10
2023-07-12T09:53:21.846Z,1.98
2023-07-12T09:55:57.802Z,2.10
2023-07-12T09:58:32.293Z,1.50
2023-07-12T10:01:07.326Z,1.63
2023-07-12T10:03:39.016Z,2.40
2023-07-12T10:06:16.811Z,1.92
2023-07-12T10:08:52.030Z,1.55
2023-07-12T10:11:29.065Z,1.65
2023-07-12T10:14:01.445Z,1.47
2023-07-12T10:16:36.823Z,1.80
2023-07-12T10:19:15.290Z,2.03
2023-07-12T10:21:43.998Z,2.40
2023-07-12T10:24:16.664Z,2.53
2023-07-12T10:26:46.107Z,1.60
2023-07-12T10:29:21.406Z,1.92
2023-07-12T10:31:56.531Z,1.75
2023-07-12T10:34:31.341Z,2.35
2023-07-12T10:37:07.763Z,2.25
2023-07-12T10:39:37.315Z,2.00
2023-07-12T10:42:13.849Z,1.70
2023-07-12T10:44:48.069Z,1.98
2023-07-12T10:47:20.626Z,1.45
2023-07-12T10:49:58.068Z,1.65
2023-07-12T10:52:31.183Z,1.70
2023-07-12T10:55:20.160Z,1.70
2023-07-12T10:57:50.691Z,1.60
2023-07-12T11:00:30.273Z,1.50
2023-07-12T11:03:16.954Z,1.80
2023-07-12T11:05:48.610Z,1.40
2023-07-12T11:08:37.130Z,1.40
2023-07-12T11:11:44.686Z,1.45
2023-07-12T11:14:17.999Z,1.73
2023-07-12T11:16:50.695Z,1.42
2023-07-12T11:20:02.396Z,2.28
2023-07-12T11:22:54.661Z,1.40
2023-07-12T11:25:40.059Z,1.58
2023-07-12T11:28:29.473Z,1.90
2023-07-12T11:31:21.375Z,1.95
2023-07-12T11:33:54.156Z,1.67
2023-07-12T11:36:25.511Z,1.75
2023-07-12T11:38:56.214Z,2.20
2023-07-12T11:41:40.913Z,2.00
2023-07-12T11:44:18.757Z,2.10
2023-07-12T11:46:51.626Z,1.77
2023-07-12T11:49:29.706Z,1.88
2023-07-12T11:52:00.495Z,1.60
2023-07-12T11:54:39.065Z,1.50
2023-07-12T11:57:12.655Z,1.50
2023-07-12T11:59:44.143Z,2.22
2023-07-12T12:02:16.088Z,1.77
2023-07-12T12:04:48.920Z,2.33
2023-07-12T12:07:26.435Z,2.03
2023-07-12T12:10:00.079Z,1.92
2023-07-12T12:12:32.392Z,2.55
2023-07-12T12:15:02.063Z,2.25
2023-07-12T12:17:33.775Z,2.15
2023-07-12T12:20:05.899Z,1.52
2023-07-12T12:22:34.956Z,1.77
2023-07-12T12:25:05.432Z,2.40
2023-07-12T12:27:37.575Z,1.95
2023-07-12T12:30:20.647Z,1.52
2023-07-12T12:33:02.265Z,2.22
2023-07-12T12:35:30.959Z,1.77
2023-07-12T12:38:03.613Z,2.00
2023-07-12T12:40:35.957Z,1.73
2023-07-12T12:43:06.407Z,2.42
2023-07-12T12:45:36.761Z,1.55
2023-07-12T12:48:15.980Z,1.75
2023-07-12T12:59:46.365Z,1.60
2023-07-12T13:06:20.975Z,1.70
2023-07-12T13:21:28.946Z,2.22
2023-07-12T13:23:57.397Z,1.90
2023-07-12T13:26:27.282Z,1.20
2023-07-12T13:28:55.722Z,1.83
2023-07-12T13:31:26.352Z,1.38
2023-07-12T13:33:55.774Z,1.60
2023-07-12T13:36:30.971Z,1.90
2023-07-12T13:46:48.170Z,1.83
2023-07-12T13:49:18.046Z,1.20
2023-07-12T13:51:47.956Z,1.02
2023-07-12T13:54:17.643Z,1.58
2023-07-12T13:56:48.577Z,1.77
2023-07-12T13:59:19.515Z,1.85
2023-07-12T14:03:05.423Z,1.98
2023-07-12T14:04:50.174Z,1.67
2023-07-12T14:08:08.201Z,1.50
2023-07-12T14:10:19.031Z,1.70
2023-07-12T14:13:05.508Z,1.50
2023-07-12T14:15:34.141Z,1.33
2023-07-12T14:18:02.615Z,1.75
2023-07-12T14:20:32.954Z,1.63
2023-07-12T14:23:17.221Z,1.75
2023-07-12T14:25:48.403Z,1.77
2023-07-12T14:28:21.645Z,1.52
2023-07-12T14:33:32.067Z,1.52
2023-07-12T14:36:20.993Z,1.50
2023-07-12T14:38:49.673Z,1.63
2023-07-12T14:41:21.885Z,2.30
2023-07-12T14:43:52.201Z,1.70
2023-07-12T14:46:20.615Z,1.90
2023-07-12T14:48:49.429Z,2.00
2023-07-12T14:51:21.673Z,1.70
2023-07-12T14:53:50.657Z,1.30
2023-07-12T14:56:21.636Z,1.67
2023-07-12T14:58:51.517Z,1.15
2023-07-12T15:01:26.904Z,1.90
2023-07-12T15:03:57.241Z,1.52
2023-07-12T15:06:26.137Z,1.88
2023-07-12T15:08:58.062Z,1.40
2023-07-12T15:11:27.380Z,2.10
2023-07-12T15:13:58.355Z,1.30
2023-07-12T15:16:26.937Z,1.70
2023-07-12T15:18:55.453Z,1.85
2023-07-12T15:21:27.110Z,1.75
2023-07-12T15:23:57.607Z,1.40
2023-07-12T15:26:27.155Z,1.52
2023-07-12T15:28:57.190Z,1.40
2023-07-12T15:31:34.984Z,1.30
2023-07-12T15:34:04.116Z,1.30
2023-07-12T15:36:33.301Z,1.55
2023-07-12T15:39:01.776Z,1.90
2023-07-12T15:41:51.372Z,1.95
2023-07-12T15:44:23.020Z,2.10
2023-07-12T15:46:51.649Z,1.40
2023-07-12T15:49:20.581Z,1.65
2023-07-12T15:51:49.741Z,1.70
2023-07-12T15:54:22.229Z,1.92
2023-07-12T15:56:51.470Z,1.20
2023-07-12T15:59:27.864Z,3.15
2023-07-12T16:01:57.540Z,1.83
2023-07-12T16:04:26.002Z,1.63
2023-07-12T16:06:54.368Z,1.65
2023-07-12T16:09:37.098Z,1.88
2023-07-12T16:12:06.206Z,1.70
2023-07-12T16:14:35.967Z,2.55
2023-07-12T16:17:04.632Z,1.80
2023-07-12T16:19:33.447Z,1.92
2023-07-12T16:22:01.900Z,2.20
2023-07-12T16:24:30.458Z,1.95
2023-07-12T16:26:58.925Z,2.03
2023-07-12T16:29:27.320Z,2.05
2023-07-12T16:31:57.080Z,2.45
2023-07-12T16:34:27.459Z,2.03
2023-07-12T16:36:58.609Z,2.22
2023-07-12T16:39:27.252Z,2.17
2023-07-12T16:41:56.017Z,2.13
2023-07-12T16:44:26.694Z,1.70
2023-07-12T16:47:11.724Z,2.22
2023-07-12T16:49:40.234Z,2.92
2023-07-12T16:52:14.056Z,2.47
2023-07-12T16:54:45.360Z,3.05
2023-07-12T16:57:18.474Z,2.75
2023-07-12T16:59:51.123Z,6.90
2023-07-12T17:02:26.563Z,3.42
2023-07-12T17:04:55.370Z,1.98
2023-07-12T17:07:26.020Z,4.07
2023-07-12T17:09:56.190Z,2.25
2023-07-12T17:12:26.509Z,2.97
2023-07-12T17:14:55.451Z,2.15
2023-07-12T17:17:26.351Z,2.80
2023-07-12T17:19:55.574Z,1.98
2023-07-12T17:22:24.557Z,2.05
2023-07-12T17:24:53.099Z,2.15
2023-07-12T17:27:23.577Z,2.40
2023-07-12T17:29:52.488Z,2.72
2023-07-12T17:32:25.834Z,2.40
2023-07-12T17:34:56.312Z,2.63
2023-07-12T17:37:24.770Z,2.03
2023-07-12T17:40:07.167Z,2.05
2023-07-12T17:42:37.284Z,2.08
2023-07-12T17:45:16.583Z,2.10
2023-07-12T17:47:45.093Z,2.10
2023-07-12T17:50:26.435Z,2.67
2023-07-12T17:52:55.032Z,2.33
2023-07-12T17:55:24.014Z,3.33
2023-07-12T17:57:52.595Z,3.05
2023-07-12T18:00:21.916Z,1.67
2023-07-12T18:02:50.530Z,2.40
2023-07-12T18:05:29.259Z,3.60
2023-07-12T18:07:58.013Z,4.47
2023-07-12T18:10:26.485Z,2.90
2023-07-12T18:12:56.073Z,2.28
2023-07-12T18:15:27.905Z,1.92
2023-07-12T18:17:56.949Z,2.60
2023-07-12T18:20:26.915Z,2.30
2023-07-12T18:22:56.416Z,2.95
2023-07-12T18:25:24.891Z,2.15
2023-07-12T18:27:53.321Z,1.80
2023-07-12T18:30:21.854Z,2.13
2023-07-12T18:32:50.511Z,2.03
2023-07-12T18:35:28.255Z,1.83
2023-07-12T18:37:57.000Z,2.08
2023-07-12T18:40:27.299Z,2.20
2023-07-12T18:42:56.072Z,1.85
2023-07-12T18:45:26.477Z,2.63
2023-07-12T18:47:54.998Z,2.90
2023-07-12T18:50:26.329Z,2.63
2023-07-12T18:52:58.057Z,2.50
2023-07-12T18:55:27.810Z,1.90
2023-07-12T18:57:57.161Z,1.70
2023-07-12T19:00:25.594Z,4.28
2023-07-12T19:02:54.128Z,5.43
2023-07-12T19:05:25.814Z,3.00
2023-07-12T19:07:54.358Z,2.92
2023-07-12T19:10:25.121Z,2.42
2023-07-12T19:12:53.700Z,1.80
2023-07-12T19:15:27.766Z,2.95
2023-07-12T19:17:56.384Z,1.48
2023-07-12T19:20:25.978Z,2.05
2023-07-12T19:22:54.643Z,2.15
2023-07-12T19:25:26.677Z,2.28
2023-07-12T19:27:55.978Z,5.82
2023-07-12T19:30:28.135Z,8.65
2023-07-12T19:32:57.091Z,5.13
2023-07-12T19:35:28.378Z,2.00
2023-07-12T19:37:57.401Z,2.33
2023-07-12T19:40:28.691Z,2.72
2023-07-12T19:42:58.043Z,3.45
2023-07-12T19:45:30.065Z,2.60
2023-07-12T19:47:59.246Z,2.60
2023-07-12T19:50:28.129Z,2.28
2023-07-12T19:52:57.551Z,2.42
2023-07-12T19:55:29.258Z,2.83
2023-07-12T19:57:57.898Z,2.55
2023-07-12T20:00:27.748Z,1.65
2023-07-12T20:02:58.102Z,3.22
2023-07-12T20:05:27.476Z,1.73
2023-07-12T20:07:55.929Z,1.90
2023-07-12T20:10:24.552Z,2.10
2023-07-12T20:12:54.320Z,3.50
2023-07-12T20:15:22.931Z,3.95
2023-07-12T20:17:51.485Z,3.35
2023-07-12T20:20:20.255Z,2.25
2023-07-12T20:22:49.444Z,1.90
2023-07-12T20:25:18.366Z,2.45
2023-07-12T20:27:46.865Z,2.80
2023-07-12T20:30:17.318Z,3.38
2023-07-12T20:32:46.182Z,2.63
2023-07-12T20:35:15.500Z,3.30
2023-07-12T20:37:44.347Z,2.65
2023-07-12T20:40:13.334Z,4.53
2023-07-12T20:42:41.749Z,7.78
2023-07-12T20:45:12.121Z,5.15
2023-07-12T20:47:42.491Z,3.00
2023-07-12T20:50:11.764Z,2.78
2023-07-12T20:52:41.487Z,15.57
2023-07-12T20:55:10.274Z,6.97
2023-07-12T20:57:39.143Z,7.20
2023-07-12T21:00:11.807Z,3.38
2023-07-12T21:02:44.014Z,2.67
2023-07-12T21:05:15.664Z,6.78
2023-07-12T21:07:44.977Z,7.18
2023-07-12T21:10:15.101Z,5.28
2023-07-12T21:12:44.096Z,3.47
2023-07-12T21:15:13.946Z,3.50
2023-07-12T21:17:43.995Z,2.85
2023-07-12T21:20:13.184Z,2.72
2023-07-12T21:22:42.167Z,3.25
2023-07-12T21:25:12.298Z,3.05
2023-07-12T21:27:41.054Z,3.33
2023-07-12T21:30:12.406Z,3.63
2023-07-12T21:32:55.206Z,2.90
2023-07-12T21:35:24.444Z,3.00
2023-07-12T21:37:53.191Z,2.67
2023-07-12T21:40:21.739Z,2.50
2023-07-12T21:42:50.524Z,3.17
2023-07-12T21:45:19.276Z,2.38
2023-07-12T21:47:48.048Z,3.15
2023-07-12T21:50:18.075Z,3.13
2023-07-12T21:52:46.723Z,2.97
2023-07-12T21:55:15.597Z,3.35
2023-07-12T21:57:44.320Z,2.95
2023-07-12T22:00:17.155Z,2.90
2023-07-12T22:02:55.836Z,2.65
2023-07-12T22:05:26.519Z,2.78
2023-07-12T22:07:57.757Z,2.88
2023-07-12T22:10:28.837Z,3.05
2023-07-12T22:12:58.275Z,2.65
2023-07-12T22:15:28.753Z,2.47
2023-07-12T22:17:57.840Z,2.53
2023-07-12T22:20:27.949Z,2.83
2023-07-12T22:22:58.631Z,2.20
2023-07-12T22:25:28.137Z,2.17
2023-07-12T22:27:56.739Z,2.35
2023-07-12T22:30:31.802Z,2.17
2023-07-12T22:33:01.065Z,2.67
2023-07-12T22:35:32.866Z,2.60
2023-07-12T22:38:02.743Z,2.55
2023-07-12T22:40:32.303Z,2.65
2023-07-12T22:43:00.954Z,2.53
2023-07-12T22:45:29.715Z,2.53
2023-07-12T22:48:00.414Z,2.80
2023-07-12T22:50:29.801Z,1.80
2023-07-12T22:53:03.810Z,2.85
2023-07-12T22:55:33.004Z,2.20
2023-07-12T22:58:03.104Z,2.00
2023-07-12T23:00:32.039Z,2.58
2023-07-12T23:03:00.645Z,3.28
2023-07-12T23:05:29.800Z,1.88
2023-07-12T23:08:00.059Z,2.38
2023-07-12T23:10:28.674Z,1.92
2023-07-12T23:12:59.308Z,2.58
2023-07-12T23:15:47.969Z,2.40
2023-07-12T23:18:16.788Z,2.38
2023-07-12T23:20:45.371Z,2.22
2023-07-12T23:23:16.104Z,2.40
2023-07-12T23:25:45.510Z,3.00
2023-07-12T23:28:14.735Z,2.60
2023-07-12T23:30:43.386Z,2.60
2023-07-12T23:33:12.093Z,2.30
2023-07-12T23:35:40.481Z,2.83
2023-07-12T23:38:08.893Z,2.10
2023-07-12T23:40:39.776Z,2.30
2023-07-12T23:43:08.749Z,2.20
2023-07-12T23:45:37.146Z,2.30
2023-07-12T23:48:06.444Z,3.15
2023-07-12T23:50:34.910Z,2.85
2023-07-12T23:53:04.464Z,2.88
2023-07-12T23:55:33.246Z,3.22
2023-07-12T23:58:05.698Z,2.20
